Time;durP1;ratioP1;P1;durP2;ratioP2;P2;SDS_P1;SDS_P2;PMS_P1;PMS_P2;Temp;Humidity;BMP_temperature;BMP_pressure;BME280_temperature;BME280_humidity;BME280_pressure;Samples;Min_cycle;Max_cycle;Signal;HPM_P1;HPM_P2
2023/08/22 00:00:02;;;;;;;18.75;16.85;;;;;;;;;;5060944;28;20037;-73
2023/08/22 00:02:28;;;;;;;18.63;16.83;;;;;;;;;;5063273;28;20110;-72
2023/08/22 00:04:53;;;;;;;20.13;15.68;;;;;;;;;;5050151;28;20116;-74
2023/08/22 00:07:19;;;;;;;18.92;15.73;;;;;;;;;;5063965;28;20143;-73
2023/08/22 00:09:44;;;;;;;18.85;16.83;;;;;;;;;;5065700;28;20046;-70
2023/08/22 00:12:09;;;;;;;17.67;15.82;;;;;;;;;;5066374;28;20057;-71
2023/08/22 00:14:35;;;;;;;24.52;16.70;;;;;;;;;;5048021;28;20458;-72
2023/08/22 00:17:01;;;;;;;24.48;16.58;;;;;;;;;;5066172;28;20024;-73
2023/08/22 00:19:26;;;;;;;20.17;15.32;;;;;;;;;;5067155;28;20040;-73
2023/08/22 00:21:52;;;;;;;18.00;16.25;;;;;;;;;;5066990;28;20455;-75
2023/08/22 00:24:18;;;;;;;24.52;16.83;;;;;;;;;;5066745;28;20047;-72
2023/08/22 00:26:43;;;;;;;19.52;16.33;;;;;;;;;;5065671;28;20060;-76
2023/08/22 00:29:09;;;;;;;23.55;16.83;;;;;;;;;;5065261;28;20032;-71
2023/08/22 00:31:34;;;;;;;20.38;16.85;;;;;;;;;;5066493;28;20020;-71
2023/08/22 00:34:01;;;;;;;22.17;16.80;;;;;;;;;;5067473;28;20024;-72
2023/08/22 00:36:27;;;;;;;21.92;16.92;;;;;;;;;;5066113;28;20032;-75
2023/08/22 00:38:52;;;;;;;21.75;15.60;;;;;;;;;;5048384;28;20020;-71
2023/08/22 00:41:18;;;;;;;19.08;17.10;;;;;;;;;;5066908;28;20439;-75
2023/08/22 00:43:43;;;;;;;19.17;16.45;;;;;;;;;;5065808;28;20369;-70
2023/08/22 00:46:09;;;;;;;21.80;16.05;;;;;;;;;;5065060;28;20134;-70
2023/08/22 00:48:35;;;;;;;21.00;16.83;;;;;;;;;;5063963;28;20077;-73
2023/08/22 00:51:00;;;;;;;19.63;17.00;;;;;;;;;;5067378;28;20067;-74
2023/08/22 00:53:26;;;;;;;17.65;15.93;;;;;;;;;;5063825;28;20077;-77
2023/08/22 00:55:51;;;;;;;20.67;16.38;;;;;;;;;;5068325;28;20023;-72
2023/08/22 00:58:17;;;;;;;17.65;15.65;;;;;;;;;;5075630;28;20035;-75
2023/08/22 01:00:42;;;;;;;23.52;17.00;;;;;;;;;;5076948;28;20584;-72
2023/08/22 01:03:07;;;;;;;17.90;15.88;;;;;;;;;;5068357;28;20107;-72
2023/08/22 01:05:34;;;;;;;18.73;16.90;;;;;;;;;;5077158;28;20036;-71
2023/08/22 01:08:04;;;;;;;18.73;16.00;;;;;;;;;;5077598;28;20032;-72
2023/08/22 01:10:33;;;;;;;19.55;17.30;;;;;;;;;;5077004;28;20024;-71
2023/08/22 01:12:59;;;;;;;;;;;;;;;;;;5078552;28;20358;-73
2023/08/22 01:15:28;;;;;;;21.77;15.17;;;;;;;;;;5076840;28;19915;-72
2023/08/22 01:17:54;;;;;;;;;;;;;;;;;;5068960;28;20108;-74
2023/08/22 01:20:20;;;;;;;18.98;16.00;;;;;;;;;;5077864;28;20007;-71
2023/08/22 01:22:46;;;;;;;17.80;15.30;;;;;;;;;;5077207;28;20367;-72
2023/08/22 01:25:11;;;;;;;21.48;16.02;;;;;;;;;;5076119;28;20036;-74
2023/08/22 01:27:43;;;;;;;17.02;15.25;;;;;;;;;;5080560;28;20383;-73
2023/08/22 01:30:12;;;;;;;17.17;15.48;;;;;;;;;;5078610;28;20032;-72
2023/08/22 01:32:40;;;;;;;22.38;16.55;;;;;;;;;;5077231;28;20769;-72
2023/08/22 01:35:09;;;;;;;20.30;16.73;;;;;;;;;;5068111;28;20051;-73
2023/08/22 01:37:35;;;;;;;19.43;15.57;;;;;;;;;;5070077;28;20439;-74
2023/08/22 01:40:01;;;;;;;18.80;16.85;;;;;;;;;;5077335;28;20762;-72
2023/08/22 01:42:27;;;;;;;19.55;17.55;;;;;;;;;;5075702;28;20020;-71
2023/08/22 01:44:52;;;;;;;21.05;17.67;;;;;;;;;;5076343;28;20480;-72
2023/08/22 01:47:17;;;;;;;21.50;17.60;;;;;;;;;;5067791;28;20506;-72
2023/08/22 01:49:43;;;;;;;23.88;17.70;;;;;;;;;;5065861;28;20378;-71
2023/08/22 01:52:08;;;;;;;21.67;18.27;;;;;;;;;;5074780;28;20020;-73
2023/08/22 01:54:36;;;;;;;17.45;15.77;;;;;;;;;;5070507;28;20036;-73
2023/08/22 01:57:02;;;;;;;18.63;16.63;;;;;;;;;;5072329;28;20038;-74
2023/08/22 01:59:27;;;;;;;18.27;16.25;;;;;;;;;;5075190;28;20037;-72
2023/08/22 02:01:53;;;;;;;19.55;16.40;;;;;;;;;;5066691;28;20234;-73
2023/08/22 02:04:18;;;;;;;20.25;15.77;;;;;;;;;;5064201;28;20028;-76
2023/08/22 02:06:43;;;;;;;18.98;16.55;;;;;;;;;;5063113;28;20054;-74
2023/08/22 02:09:09;;;;;;;18.02;15.48;;;;;;;;;;5064689;28;20042;-74
2023/08/22 02:11:35;;;;;;;17.17;15.52;;;;;;;;;;5069338;28;20104;-77
2023/08/22 02:14:00;;;;;;;19.73;16.27;;;;;;;;;;5062895;28;20116;-73
2023/08/22 02:16:26;;;;;;;19.13;16.48;;;;;;;;;;5069607;28;23279;-74
2023/08/22 02:18:51;;;;;;;19.38;16.85;;;;;;;;;;5070325;28;20388;-70
2023/08/22 02:21:16;;;;;;;22.48;16.55;;;;;;;;;;5072801;28;20032;-70
2023/08/22 02:23:42;;;;;;;20.80;16.75;;;;;;;;;;5048771;28;20064;-71
2023/08/22 02:26:07;;;;;;;17.88;16.13;;;;;;;;;;5064358;28;20093;-74
2023/08/22 02:28:33;;;;;;;19.20;17.20;;;;;;;;;;5075925;28;20046;-73
2023/08/22 02:30:58;;;;;;;19.65;17.15;;;;;;;;;;5077405;28;20035;-72
2023/08/22 02:33:24;;;;;;;19.08;17.25;;;;;;;;;;5075509;28;20469;-77
2023/08/22 02:35:49;;;;;;;25.10;17.98;;;;;;;;;;5059690;28;20036;-73
2023/08/22 02:38:15;;;;;;;19.38;17.30;;;;;;;;;;5076577;28;20032;-74
2023/08/22 02:40:41;;;;;;;18.85;16.80;;;;;;;;;;5066424;28;20031;-72
2023/08/22 02:43:06;;;;;;;20.83;17.67;;;;;;;;;;5065466;28;20024;-73
2023/08/22 02:45:31;;;;;;;18.75;15.80;;;;;;;;;;5073269;28;20035;-71
2023/08/22 02:47:57;;;;;;;24.85;16.25;;;;;;;;;;5074138;28;20472;-76
2023/08/22 02:50:23;;;;;;;19.95;17.30;;;;;;;;;;5077174;28;20028;-73
2023/08/22 02:52:51;;;;;;;18.05;15.85;;;;;;;;;;5078524;28;20024;-72
2023/08/22 02:55:17;;;;;;;22.40;16.65;;;;;;;;;;5064281;28;20035;-75
2023/08/22 02:57:43;;;;;;;17.33;15.50;;;;;;;;;;5062793;28;20032;-72
2023/08/22 03:00:11;;;;;;;24.00;16.02;;;;;;;;;;5072826;28;20032;-71
2023/08/22 03:02:36;;;;;;;18.05;14.70;;;;;;;;;;5075299;28;20427;-72
2023/08/22 03:05:04;;;;;;;23.77;15.00;;;;;;;;;;5074779;28;20110;-72
2023/08/22 03:07:29;;;;;;;17.33;15.38;;;;;;;;;;5076061;28;20482;-71
2023/08/22 03:09:54;;;;;;;16.55;15.00;;;;;;;;;;5075950;28;20063;-72
2023/08/22 03:12:20;;;;;;;19.05;16.75;;;;;;;;;;5067438;28;20516;-74
2023/08/22 03:14:45;;;;;;;17.33;15.23;;;;;;;;;;5065014;28;20028;-71
2023/08/22 03:17:11;;;;;;;19.65;16.00;;;;;;;;;;5062642;28;20025;-71
2023/08/22 03:19:37;;;;;;;20.10;14.80;;;;;;;;;;5076106;28;20048;-75
2023/08/22 03:22:02;;;;;;;20.92;13.90;;;;;;;;;;5072988;28;20032;-73
2023/08/22 03:24:28;;;;;;;22.48;14.48;;;;;;;;;;5075245;28;20024;-78
2023/08/22 03:26:53;;;;;;;21.33;14.55;;;;;;;;;;5067639;28;20107;-74
2023/08/22 03:29:19;;;;;;;16.02;14.38;;;;;;;;;;5070841;28;20101;-74
2023/08/22 03:31:44;;;;;;;16.52;14.55;;;;;;;;;;5072041;28;20036;-71
2023/08/22 03:34:09;;;;;;;18.45;15.07;;;;;;;;;;5072617;28;20031;-72
2023/08/22 03:36:35;;;;;;;19.52;15.40;;;;;;;;;;5071992;28;20051;-71
2023/08/22 03:39:00;;;;;;;16.33;14.90;;;;;;;;;;5074102;28;20046;-71
2023/08/22 03:41:26;;;;;;;18.70;16.25;;;;;;;;;;5072218;28;20031;-72
2023/08/22 03:43:51;;;;;;;21.65;15.05;;;;;;;;;;5062531;28;20025;-76
2023/08/22 03:46:16;;;;;;;21.02;16.00;;;;;;;;;;5063532;28;20099;-72
2023/08/22 03:48:42;;;;;;;17.08;15.40;;;;;;;;;;5063694;28;20037;-76
2023/08/22 03:51:08;;;;;;;16.05;14.55;;;;;;;;;;5073826;28;20025;-75
2023/08/22 03:53:34;;;;;;;19.48;14.93;;;;;;;;;;5072621;28;20024;-72
2023/08/22 03:56:00;;;;;;;19.00;15.57;;;;;;;;;;5063050;28;20447;-72
2023/08/22 03:58:25;;;;;;;19.58;15.02;;;;;;;;;;5062467;28;20027;-74
2023/08/22 04:00:53;;;;;;;20.73;16.95;;;;;;;;;;5072532;28;20512;-75
2023/08/22 04:03:18;;;;;;;18.90;16.85;;;;;;;;;;5072119;28;20082;-73
2023/08/22 04:05:43;;;;;;;19.55;16.60;;;;;;;;;;5066615;28;20030;-71
2023/08/22 04:08:09;;;;;;;17.63;15.63;;;;;;;;;;5056185;28;20016;-72
2023/08/22 04:10:34;;;;;;;18.80;16.90;;;;;;;;;;5059358;28;20067;-71
2023/08/22 04:13:00;;;;;;;18.60;16.65;;;;;;;;;;5054176;28;20020;-72
2023/08/22 04:15:25;;;;;;;19.05;15.93;;;;;;;;;;5049854;28;20028;-73
2023/08/22 04:17:50;;;;;;;17.50;15.63;;;;;;;;;;5053328;28;20390;-73
2023/08/22 04:20:16;;;;;;;16.88;14.48;;;;;;;;;;5051328;28;20130;-78
2023/08/22 04:22:41;;;;;;;17.10;15.13;;;;;;;;;;5057170;28;20024;-73
2023/08/22 04:25:07;;;;;;;17.33;15.65;;;;;;;;;;5071414;28;20397;-71
2023/08/22 04:27:32;;;;;;;16.85;14.93;;;;;;;;;;5071835;28;20073;-70
2023/08/22 04:29:59;;;;;;;17.25;14.10;;;;;;;;;;5063348;28;20454;-70
2023/08/22 04:32:24;;;;;;;16.13;14.52;;;;;;;;;;5061409;28;20028;-70
2023/08/22 04:34:49;;;;;;;21.33;16.65;;;;;;;;;;5038198;28;20020;-68
2023/08/22 04:37:15;;;;;;;17.25;15.48;;;;;;;;;;5054036;28;20085;-73
2023/08/22 04:39:40;;;;;;;23.50;16.45;;;;;;;;;;5068494;28;20060;-71
2023/08/22 04:42:05;;;;;;;20.30;16.63;;;;;;;;;;5071567;28;20031;-67
2023/08/22 04:44:31;;;;;;;19.90;18.00;;;;;;;;;;5069861;28;20122;-71
2023/08/22 04:46:56;;;;;;;19.85;17.77;;;;;;;;;;5064174;28;22986;-68
2023/08/22 04:49:21;;;;;;;20.33;17.95;;;;;;;;;;5061794;28;20078;-68
2023/08/22 04:51:48;;;;;;;19.45;17.40;;;;;;;;;;5058682;28;20123;-71
2023/08/22 04:54:13;;;;;;;19.83;18.13;;;;;;;;;;5070803;28;20078;-67
2023/08/22 04:56:39;;;;;;;19.83;17.75;;;;;;;;;;5065550;28;20025;-68
2023/08/22 04:59:04;;;;;;;20.02;17.88;;;;;;;;;;5073034;28;20039;-71
2023/08/22 05:01:29;;;;;;;22.45;19.40;;;;;;;;;;5074920;28;20024;-67
2023/08/22 05:03:55;;;;;;;22.83;18.67;;;;;;;;;;5075764;28;20023;-72
2023/08/22 05:06:20;;;;;;;20.60;16.13;;;;;;;;;;5074100;28;20394;-68
2023/08/22 05:08:45;;;;;;;18.58;16.90;;;;;;;;;;5075260;28;20032;-66
2023/08/22 05:11:11;;;;;;;18.90;17.00;;;;;;;;;;5074040;28;20231;-66
2023/08/22 05:13:36;;;;;;;24.30;17.20;;;;;;;;;;5074436;28;20033;-67
2023/08/22 05:16:02;;;;;;;19.92;17.90;;;;;;;;;;5075281;28;20093;-68
2023/08/22 05:18:27;;;;;;;20.05;18.27;;;;;;;;;;5077131;28;20202;-68
2023/08/22 05:20:53;;;;;;;18.35;16.40;;;;;;;;;;5074303;28;20036;-66
2023/08/22 05:23:18;;;;;;;19.83;17.83;;;;;;;;;;5070547;28;20025;-68
2023/08/22 05:25:43;;;;;;;19.00;16.85;;;;;;;;;;5063570;28;20372;-68
2023/08/22 05:28:09;;;;;;;19.35;16.98;;;;;;;;;;5065329;28;20098;-71
2023/08/22 05:30:37;;;;;;;19.90;18.10;;;;;;;;;;5064110;28;20055;-68
2023/08/22 05:33:03;;;;;;;21.40;18.13;;;;;;;;;;5073741;28;20019;-68
2023/08/22 05:35:28;;;;;;;20.73;18.58;;;;;;;;;;5077911;28;20039;-68
2023/08/22 05:37:54;;;;;;;20.60;18.48;;;;;;;;;;5076272;28;20024;-71
2023/08/22 05:40:19;;;;;;;19.73;17.88;;;;;;;;;;5077541;28;20039;-69
2023/08/22 05:42:44;;;;;;;21.27;18.08;;;;;;;;;;5068322;28;20032;-69
2023/08/22 05:45:10;;;;;;;20.08;18.15;;;;;;;;;;5073244;28;20023;-71
2023/08/22 05:47:35;;;;;;;19.25;17.50;;;;;;;;;;5076795;28;20058;-70
2023/08/22 05:50:01;;;;;;;20.83;17.25;;;;;;;;;;5073624;28;20103;-67
2023/08/22 05:52:26;;;;;;;20.15;18.42;;;;;;;;;;5078664;28;20024;-69
2023/08/22 05:54:51;;;;;;;20.23;18.35;;;;;;;;;;5078373;28;20439;-68
2023/08/22 05:57:17;;;;;;;17.92;16.13;;;;;;;;;;5075742;28;20016;-69
2023/08/22 05:59:42;;;;;;;19.13;17.38;;;;;;;;;;5077153;28;20032;-71
2023/08/22 06:02:07;;;;;;;19.52;17.83;;;;;;;;;;5076650;28;20032;-68
2023/08/22 06:04:33;;;;;;;19.65;17.85;;;;;;;;;;5071402;28;20089;-74
2023/08/22 06:06:58;;;;;;;18.92;16.58;;;;;;;;;;5072750;28;20055;-72
2023/08/22 06:09:23;;;;;;;17.88;16.27;;;;;;;;;;5068649;28;20040;-71
2023/08/22 06:11:49;;;;;;;18.58;16.98;;;;;;;;;;5075267;28;20115;-70
2023/08/22 06:14:14;;;;;;;17.95;16.52;;;;;;;;;;5076400;28;20109;-73
2023/08/22 06:16:40;;;;;;;19.10;17.10;;;;;;;;;;5075021;28;20028;-69
2023/08/22 06:19:05;;;;;;;17.83;16.20;;;;;;;;;;5075551;28;20054;-70
2023/08/22 06:21:30;;;;;;;18.35;16.60;;;;;;;;;;5073881;28;20039;-70
2023/08/22 06:23:57;;;;;;;17.02;15.57;;;;;;;;;;5077240;28;20020;-73
2023/08/22 06:26:23;;;;;;;18.60;16.80;;;;;;;;;;5075055;28;20061;-70
2023/08/22 06:28:48;;;;;;;17.67;16.00;;;;;;;;;;5075716;28;20028;-71
2023/08/22 06:31:14;;;;;;;19.15;15.95;;;;;;;;;;5074163;28;20032;-70
2023/08/22 06:33:39;;;;;;;17.48;15.75;;;;;;;;;;5074011;28;20379;-71
2023/08/22 06:36:04;;;;;;;16.63;15.23;;;;;;;;;;5076174;28;20023;-71
2023/08/22 06:38:30;;;;;;;17.65;15.80;;;;;;;;;;5073320;28;20044;-69
2023/08/22 06:40:55;;;;;;;17.88;16.13;;;;;;;;;;5074517;28;20040;-71
2023/08/22 06:43:22;;;;;;;17.88;16.15;;;;;;;;;;5074104;28;20060;-74
2023/08/22 06:45:47;;;;;;;16.77;15.20;;;;;;;;;;5074606;28;20052;-68
2023/08/22 06:48:13;;;;;;;17.77;16.20;;;;;;;;;;5075927;28;20047;-75
2023/08/22 06:50:38;;;;;;;17.38;15.82;;;;;;;;;;5074162;28;20036;-68
2023/08/22 06:53:03;;;;;;;15.80;14.43;;;;;;;;;;5071957;28;20107;-69
2023/08/22 06:55:29;;;;;;;17.52;14.32;;;;;;;;;;5075170;28;20111;-68
2023/08/22 06:57:54;;;;;;;16.75;15.10;;;;;;;;;;5075800;28;20493;-68
2023/08/22 07:00:19;;;;;;;16.65;15.15;;;;;;;;;;5074827;28;20134;-71
2023/08/22 07:02:46;;;;;;;16.65;14.98;;;;;;;;;;5063153;28;20020;-71
2023/08/22 07:05:14;;;;;;;15.68;14.27;;;;;;;;;;5062908;28;20363;-70
2023/08/22 07:07:40;;;;;;;15.52;14.10;;;;;;;;;;5063729;28;20170;-71
2023/08/22 07:10:08;;;;;;;15.63;14.15;;;;;;;;;;5057939;28;20032;-70
2023/08/22 07:12:33;;;;;;;15.13;13.80;;;;;;;;;;5075300;28;20355;-72
2023/08/22 07:14:58;;;;;;;13.95;12.77;;;;;;;;;;5074358;28;20024;-71
2023/08/22 07:17:24;;;;;;;16.35;14.60;;;;;;;;;;5074068;28;20063;-70
2023/08/22 07:19:49;;;;;;;14.27;13.18;;;;;;;;;;5075034;28;20028;-71
2023/08/22 07:22:14;;;;;;;14.75;13.50;;;;;;;;;;5072038;28;20038;-68
2023/08/22 07:24:40;;;;;;;15.20;13.70;;;;;;;;;;5071189;28;20035;-69
2023/08/22 07:27:05;;;;;;;14.73;13.43;;;;;;;;;;5073617;28;20028;-70
2023/08/22 07:29:31;;;;;;;14.20;12.90;;;;;;;;;;5073420;28;20435;-73
2023/08/22 07:31:59;;;;;;;15.68;14.27;;;;;;;;;;5074482;28;20063;-71
2023/08/22 07:34:25;;;;;;;14.52;13.10;;;;;;;;;;5074311;28;20024;-68
2023/08/22 07:36:50;;;;;;;15.68;14.13;;;;;;;;;;5073190;28;20339;-69
2023/08/22 07:39:16;;;;;;;14.80;13.50;;;;;;;;;;5074301;28;20050;-74
2023/08/22 07:41:41;;;;;;;15.00;13.70;;;;;;;;;;5073975;28;20077;-69
2023/08/22 07:44:06;;;;;;;17.13;14.05;;;;;;;;;;5054842;28;20033;-71
2023/08/22 07:46:32;;;;;;;14.93;13.70;;;;;;;;;;5074383;28;20070;-73
2023/08/22 07:48:58;;;;;;;14.40;13.10;;;;;;;;;;5073212;28;20036;-69
2023/08/22 07:51:23;;;;;;;14.27;13.18;;;;;;;;;;5067005;28;20178;-71
2023/08/22 07:53:48;;;;;;;14.65;13.23;;;;;;;;;;5072023;28;20020;-71
2023/08/22 07:56:14;;;;;;;13.30;12.10;;;;;;;;;;5074233;28;20024;-74
2023/08/22 07:58:39;;;;;;;14.00;12.27;;;;;;;;;;5074360;28;20027;-71
2023/08/22 08:01:05;;;;;;;13.43;12.15;;;;;;;;;;5072632;28;20044;-73
2023/08/22 08:03:30;;;;;;;14.48;11.70;;;;;;;;;;5066014;28;20024;-72
2023/08/22 08:05:55;;;;;;;12.20;11.05;;;;;;;;;;5072282;28;20044;-75
2023/08/22 08:08:21;;;;;;;11.77;10.68;;;;;;;;;;5075372;28;20534;-74
2023/08/22 08:10:46;;;;;;;14.68;10.98;;;;;;;;;;5074900;28;20492;-71
2023/08/22 08:13:13;;;;;;;10.80;9.90;;;;;;;;;;5072217;28;20041;-70
2023/08/22 08:15:38;;;;;;;12.07;11.15;;;;;;;;;;5074046;28;20052;-69
2023/08/22 08:18:04;;;;;;;11.35;10.38;;;;;;;;;;5075339;28;20062;-74
2023/08/22 08:20:29;;;;;;;12.07;10.80;;;;;;;;;;5072094;28;20127;-73
2023/08/22 08:22:55;;;;;;;12.05;10.80;;;;;;;;;;5072467;28;20522;-71
2023/08/22 08:25:20;;;;;;;10.60;9.60;;;;;;;;;;5070878;28;20035;-72
2023/08/22 08:27:46;;;;;;;13.07;9.77;;;;;;;;;;5067236;28;20101;-71
2023/08/22 08:30:11;;;;;;;9.75;8.85;;;;;;;;;;5071697;28;20060;-68
2023/08/22 08:32:36;;;;;;;11.75;10.73;;;;;;;;;;5077482;28;20077;-69
2023/08/22 08:35:04;;;;;;;11.60;10.52;;;;;;;;;;5068056;28;20025;-68
2023/08/22 08:37:30;;;;;;;11.60;10.43;;;;;;;;;;5075283;28;20320;-73
2023/08/22 08:39:55;;;;;;;11.57;10.48;;;;;;;;;;5078369;28;20059;-69
2023/08/22 08:42:21;;;;;;;10.48;9.50;;;;;;;;;;5075721;28;20437;-68
2023/08/22 08:44:46;;;;;;;10.73;9.73;;;;;;;;;;5076314;28;20764;-69
2023/08/22 08:47:12;;;;;;;12.15;11.07;;;;;;;;;;5067971;28;20044;-70
2023/08/22 08:49:37;;;;;;;12.00;10.65;;;;;;;;;;5052657;28;20051;-70
2023/08/22 08:52:04;;;;;;;14.52;10.38;;;;;;;;;;5072331;28;20016;-70
2023/08/22 08:54:29;;;;;;;10.13;9.23;;;;;;;;;;5075509;28;20110;-67
2023/08/22 08:56:55;;;;;;;10.80;9.80;;;;;;;;;;5076834;28;20147;-70
2023/08/22 08:59:21;;;;;;;11.27;10.05;;;;;;;;;;5079592;28;20081;-68
2023/08/22 09:01:46;;;;;;;10.32;9.02;;;;;;;;;;5077570;28;20024;-68
2023/08/22 09:04:12;;;;;;;11.35;10.23;;;;;;;;;;5076830;28;20051;-70
2023/08/22 09:06:37;;;;;;;10.70;9.82;;;;;;;;;;5077170;28;20028;-69
2023/08/22 09:09:04;;;;;;;11.07;10.02;;;;;;;;;;5074220;28;20454;-69
2023/08/22 09:11:29;;;;;;;10.38;9.38;;;;;;;;;;5068482;28;20758;-66
2023/08/22 09:13:55;;;;;;;10.85;9.88;;;;;;;;;;5075429;28;20028;-72
2023/08/22 09:16:22;;;;;;;10.25;9.35;;;;;;;;;;5074426;28;20031;-69
2023/08/22 09:18:48;;;;;;;11.05;10.02;;;;;;;;;;5067821;28;20084;-73
2023/08/22 09:21:14;;;;;;;11.50;10.35;;;;;;;;;;5078450;28;20067;-66
2023/08/22 09:23:40;;;;;;;11.55;10.43;;;;;;;;;;5077154;28;20020;-68
2023/08/22 09:26:05;;;;;;;11.20;10.20;;;;;;;;;;5067097;28;20122;-70
2023/08/22 09:28:30;;;;;;;10.57;9.68;;;;;;;;;;5068313;28;20037;-71
2023/08/22 09:30:56;;;;;;;10.75;9.75;;;;;;;;;;5063622;28;20047;-69
2023/08/22 09:33:21;;;;;;;13.57;10.05;;;;;;;;;;5063295;28;20024;-71
2023/08/22 09:35:48;;;;;;;10.13;9.32;;;;;;;;;;5063834;28;20020;-69
2023/08/22 09:38:13;;;;;;;11.20;10.18;;;;;;;;;;5073478;28;20038;-72
2023/08/22 09:40:52;;;;;;;11.63;10.43;;;;;;;;;;5076151;28;20394;-72
2023/08/22 09:43:19;;;;;;;10.65;9.52;;;;;;;;;;5070750;28;20066;-71
2023/08/22 09:45:44;;;;;;;14.00;10.05;;;;;;;;;;5074797;28;20020;-70
2023/08/22 09:48:13;;;;;;;13.85;9.88;;;;;;;;;;5074123;28;20436;-74
2023/08/22 09:50:41;;;;;;;9.75;8.77;;;;;;;;;;5074624;28;20036;-69
2023/08/22 09:53:09;;;;;;;11.20;10.10;;;;;;;;;;5059839;28;20306;-72
2023/08/22 09:55:34;;;;;;;11.65;10.15;;;;;;;;;;5075952;28;20020;-70
2023/08/22 09:58:00;;;;;;;11.13;9.18;;;;;;;;;;5074944;28;20031;-72
2023/08/22 10:00:30;;;;;;;10.57;9.68;;;;;;;;;;5074155;28;20386;-73
2023/08/22 10:02:56;;;;;;;11.38;10.27;;;;;;;;;;5075006;28;20025;-70
2023/08/22 10:05:22;;;;;;;10.68;9.68;;;;;;;;;;5077009;28;20433;-72
2023/08/22 10:07:48;;;;;;;10.65;9.75;;;;;;;;;;5056687;28;20063;-74
2023/08/22 10:10:16;;;;;;;12.73;9.20;;;;;;;;;;5073936;28;20072;-72
2023/08/22 10:12:42;;;;;;;10.32;9.35;;;;;;;;;;5074572;28;20436;-73
2023/08/22 10:15:08;;;;;;;11.05;9.73;;;;;;;;;;5074511;28;20067;-69
2023/08/22 10:17:34;;;;;;;12.73;9.85;;;;;;;;;;5073065;28;20028;-74
2023/08/22 10:20:00;;;;;;;9.52;8.52;;;;;;;;;;5073692;28;20362;-71
2023/08/22 10:22:30;;;;;;;9.93;8.90;;;;;;;;;;5076705;28;20063;-70
2023/08/22 10:25:00;;;;;;;9.63;8.82;;;;;;;;;;5073439;28;20097;-69
2023/08/22 10:27:28;;;;;;;9.15;8.25;;;;;;;;;;5074215;28;20067;-71
2023/08/22 10:30:12;;;;;;;11.57;8.75;;;;;;;;;;5073487;28;20067;-70
2023/08/22 10:32:37;;;;;;;10.13;9.05;;;;;;;;;;5075507;28;20055;-71
2023/08/22 10:35:04;;;;;;;8.85;8.10;;;;;;;;;;5072512;28;20829;-72
2023/08/22 10:37:29;;;;;;;9.50;8.60;;;;;;;;;;5074182;28;20020;-72
2023/08/22 10:39:57;;;;;;;13.35;8.35;;;;;;;;;;5074092;28;20047;-70
2023/08/22 10:42:23;;;;;;;9.15;8.35;;;;;;;;;;5073877;28;20024;-73
2023/08/22 10:44:48;;;;;;;9.60;8.60;;;;;;;;;;5074902;28;20059;-71
2023/08/22 10:47:17;;;;;;;10.00;9.00;;;;;;;;;;5070764;28;20363;-75
2023/08/22 10:49:42;;;;;;;;;;;;;;;;;;5058175;28;20265;-70
2023/08/22 10:52:07;;;;;;;9.70;8.80;;;;;;;;;;5075208;28;19912;-70
2023/08/22 10:54:53;;;;;;;9.75;8.95;;;;;;;;;;5071655;28;20076;-72
2023/08/22 10:57:18;;;;;;;10.82;8.35;;;;;;;;;;5073228;28;20439;-69
2023/08/22 10:59:59;;;;;;;9.70;8.52;;;;;;;;;;5073479;28;20028;-70
2023/08/22 11:02:27;;;;;;;9.27;8.55;;;;;;;;;;5075285;28;20032;-70
2023/08/22 11:04:53;;;;;;;;;;;;;;;;;;5075704;28;20016;-70
2023/08/22 11:07:18;;;;;;;10.20;9.13;;;;;;;;;;5070670;28;19964;-71
2023/08/22 11:09:45;;;;;;;9.80;8.98;;;;;;;;;;5074177;28;20023;-76
2023/08/22 11:12:21;;;;;;;10.20;9.15;;;;;;;;;;5074674;28;20372;-70
2023/08/22 11:14:46;;;;;;;9.15;8.43;;;;;;;;;;5064159;28;20047;-71
2023/08/22 11:17:13;;;;;;;9.10;8.32;;;;;;;;;;5062708;28;20400;-71
2023/08/22 11:19:38;;;;;;;9.45;8.48;;;;;;;;;;5068214;28;20043;-70
2023/08/22 11:22:05;;;;;;;12.38;8.15;;;;;;;;;;5072717;28;20359;-71
2023/08/22 11:24:30;;;;;;;8.43;7.72;;;;;;;;;;5072390;28;20047;-71
2023/08/22 11:26:55;;;;;;;8.30;7.60;;;;;;;;;;5072645;28;20066;-73
2023/08/22 11:29:22;;;;;;;10.05;8.20;;;;;;;;;;5068834;28;20035;-70
2023/08/22 11:31:48;;;;;;;9.35;8.45;;;;;;;;;;5061147;28;21318;-72
2023/08/22 11:34:13;;;;;;;9.93;9.00;;;;;;;;;;5064240;28;20032;-73
2023/08/22 11:36:39;;;;;;;9.38;8.30;;;;;;;;;;5061180;28;20024;-71
2023/08/22 11:39:07;;;;;;;9.20;8.45;;;;;;;;;;5060178;28;20028;-72
2023/08/22 11:41:33;;;;;;;9.15;8.25;;;;;;;;;;5060971;28;20082;-70
2023/08/22 11:44:00;;;;;;;9.10;8.20;;;;;;;;;;5060770;28;20405;-71
2023/08/22 11:46:26;;;;;;;9.30;8.43;;;;;;;;;;5062094;28;20044;-73
2023/08/22 11:48:52;;;;;;;9.13;8.07;;;;;;;;;;5061873;28;20082;-73
2023/08/22 11:51:21;;;;;;;9.25;8.50;;;;;;;;;;5062776;28;20032;-71
2023/08/22 11:53:46;;;;;;;9.82;8.25;;;;;;;;;;5063160;28;20103;-70
2023/08/22 11:56:12;;;;;;;9.93;8.93;;;;;;;;;;5062698;28;20534;-73
2023/08/22 11:58:49;;;;;;;9.60;8.35;;;;;;;;;;5066100;28;20028;-72
2023/08/22 12:01:15;;;;;;;9.10;8.20;;;;;;;;;;5066421;28;20020;-72
2023/08/22 12:03:47;;;;;;;9.90;8.88;;;;;;;;;;5067209;28;20028;-71
2023/08/22 12:06:13;;;;;;;9.65;8.73;;;;;;;;;;5066782;28;20059;-72
2023/08/22 12:08:39;;;;;;;10.65;8.65;;;;;;;;;;5065286;28;20362;-72
2023/08/22 12:11:06;;;;;;;9.38;8.48;;;;;;;;;;5064860;28;20123;-76
2023/08/22 12:13:31;;;;;;;9.80;7.95;;;;;;;;;;5064563;28;20117;-71
2023/08/22 12:15:56;;;;;;;9.18;8.48;;;;;;;;;;5065528;28;20058;-71
2023/08/22 12:18:39;;;;;;;10.55;8.63;;;;;;;;;;5064380;28;20043;-71
2023/08/22 12:21:05;;;;;;;8.80;7.93;;;;;;;;;;5066467;28;20466;-72
2023/08/22 12:23:30;;;;;;;9.38;8.48;;;;;;;;;;5066681;28;20027;-71
2023/08/22 12:25:55;;;;;;;8.93;8.15;;;;;;;;;;5066584;28;20434;-72
2023/08/22 12:28:21;;;;;;;10.43;8.48;;;;;;;;;;5062204;28;20035;-73
2023/08/22 12:30:47;;;;;;;9.98;8.45;;;;;;;;;;5064526;28;20028;-76
2023/08/22 12:33:12;;;;;;;8.73;8.02;;;;;;;;;;5068232;28;20479;-72
2023/08/22 12:35:38;;;;;;;8.75;8.07;;;;;;;;;;5076778;28;20024;-70
2023/08/22 12:38:04;;;;;;;8.02;7.22;;;;;;;;;;5069372;28;20035;-71
2023/08/22 12:40:29;;;;;;;9.55;7.53;;;;;;;;;;5074597;28;20749;-71
2023/08/22 12:42:55;;;;;;;9.27;8.07;;;;;;;;;;5068609;28;20024;-70
2023/08/22 12:45:22;;;;;;;11.52;7.72;;;;;;;;;;5076612;28;20016;-72
2023/08/22 12:47:48;;;;;;;8.77;7.97;;;;;;;;;;5074369;28;20539;-70
2023/08/22 12:50:14;;;;;;;8.40;7.63;;;;;;;;;;5066173;28;20032;-74
2023/08/22 12:52:39;;;;;;;8.70;7.70;;;;;;;;;;5077610;28;20028;-69
2023/08/22 12:55:08;;;;;;;8.10;7.25;;;;;;;;;;5057092;28;20020;-69
2023/08/22 12:57:34;;;;;;;8.45;7.68;;;;;;;;;;5052737;28;20024;-70
2023/08/22 12:59:59;;;;;;;9.05;8.13;;;;;;;;;;5051629;28;20080;-71
2023/08/22 13:02:25;;;;;;;9.27;7.32;;;;;;;;;;5052510;28;20141;-73
2023/08/22 13:04:50;;;;;;;8.18;7.38;;;;;;;;;;5045645;28;20329;-73
2023/08/22 13:07:15;;;;;;;7.90;7.20;;;;;;;;;;5059175;28;20047;-73
2023/08/22 13:09:41;;;;;;;8.68;7.78;;;;;;;;;;5054121;28;20028;-70
2023/08/22 13:12:06;;;;;;;8.40;7.57;;;;;;;;;;5043832;28;20524;-68
2023/08/22 13:14:32;;;;;;;8.45;7.70;;;;;;;;;;5056525;28;20046;-73
2023/08/22 13:16:57;;;;;;;8.82;7.90;;;;;;;;;;5064103;28;20779;-69
2023/08/22 13:19:23;;;;;;;8.23;7.53;;;;;;;;;;5070765;28;20028;-73
2023/08/22 13:21:48;;;;;;;8.13;7.43;;;;;;;;;;5076177;28;20020;-71
2023/08/22 13:24:13;;;;;;;7.88;7.20;;;;;;;;;;5068190;28;20158;-69
2023/08/22 13:26:40;;;;;;;7.85;7.15;;;;;;;;;;5068382;28;20680;-69
2023/08/22 13:29:06;;;;;;;8.88;7.18;;;;;;;;;;5067028;28;20047;-73
2023/08/22 13:31:31;;;;;;;10.48;8.00;;;;;;;;;;5070709;28;20033;-73
2023/08/22 13:33:56;;;;;;;9.05;7.70;;;;;;;;;;5073237;28;20027;-70
2023/08/22 13:36:22;;;;;;;8.25;7.18;;;;;;;;;;5067229;28;21098;-72
2023/08/22 13:38:47;;;;;;;8.23;7.53;;;;;;;;;;5055127;28;20021;-73
2023/08/22 13:41:12;;;;;;;7.50;6.90;;;;;;;;;;5052224;28;20066;-71
2023/08/22 13:43:39;;;;;;;7.90;7.13;;;;;;;;;;5054775;28;20553;-71
2023/08/22 13:46:07;;;;;;;7.88;7.28;;;;;;;;;;5058753;28;20105;-72
2023/08/22 13:48:33;;;;;;;7.65;7.05;;;;;;;;;;5065659;28;20617;-75
2023/08/22 13:50:58;;;;;;;8.45;7.10;;;;;;;;;;5073102;28;20155;-72
2023/08/22 13:53:24;;;;;;;7.28;6.50;;;;;;;;;;5071027;28;20027;-70
2023/08/22 13:55:49;;;;;;;7.00;6.25;;;;;;;;;;5055430;28;20024;-70
2023/08/22 13:58:15;;;;;;;11.18;6.93;;;;;;;;;;5050457;28;20040;-68
2023/08/22 14:00:41;;;;;;;7.88;7.15;;;;;;;;;;5054943;28;20346;-71
2023/08/22 14:03:06;;;;;;;7.20;6.50;;;;;;;;;;5052497;28;20032;-72
2023/08/22 14:05:31;;;;;;;8.70;6.57;;;;;;;;;;5055259;28;20115;-71
2023/08/22 14:07:57;;;;;;;9.52;7.35;;;;;;;;;;5063526;28;20790;-71
2023/08/22 14:10:23;;;;;;;7.85;6.90;;;;;;;;;;5061847;28;20036;-69
2023/08/22 14:12:52;;;;;;;7.05;6.40;;;;;;;;;;5062160;28;20020;-69
2023/08/22 14:15:18;;;;;;;8.73;6.82;;;;;;;;;;5063281;28;20415;-73
2023/08/22 14:17:43;;;;;;;7.88;6.75;;;;;;;;;;5064058;28;20503;-70